Time;durP1;ratioP1;P1;durP2;ratioP2;P2;SDS_P1;SDS_P2;PMS_P1;PMS_P2;Temp;Humidity;BMP_temperature;BMP_pressure;BME280_temperature;BME280_humidity;BME280_pressure;Samples;Min_cycle;Max_cycle;Signal;HPM_P1;HPM_P2
2021/09/25 00:00:39;;;;;;;6.35;2.70;;;15.40;99.70;;;;;;5006700;28;20024;-84
2021/09/25 00:03:05;;;;;;;3.58;3.03;;;15.30;99.60;;;;;;5015094;28;20025;-83
2021/09/25 00:05:32;;;;;;;2.92;2.63;;;15.20;99.50;;;;;;5017301;28;20045;-85
2021/09/25 00:07:58;;;;;;;5.60;2.80;;;15.20;99.60;;;;;;5042268;28;20493;-85
2021/09/25 00:10:24;;;;;;;4.65;3.30;;;15.20;99.50;;;;;;5046321;28;20054;-84
2021/09/25 00:12:50;;;;;;;5.88;3.10;;;15.20;99.60;;;;;;5017944;28;21686;-84
2021/09/25 00:15:16;;;;;;;3.65;3.00;;;15.20;99.50;;;;;;5041209;28;20058;-85
2021/09/25 00:17:42;;;;;;;5.28;2.97;;;15.20;99.50;;;;;;5027641;28;20044;-84
2021/09/25 00:20:08;;;;;;;4.00;2.90;;;15.20;99.50;;;;;;4996917;28;20040;-85
2021/09/25 00:22:34;;;;;;;3.85;2.50;;;15.20;99.40;;;;;;5021198;28;20404;-85
2021/09/25 00:25:01;;;;;;;6.10;3.05;;;15.10;99.60;;;;;;5037019;28;20033;-84
2021/09/25 00:27:27;;;;;;;3.75;2.90;;;15.00;99.70;;;;;;5042040;28;20486;-84
2021/09/25 00:29:52;;;;;;;5.93;3.03;;;15.10;99.70;;;;;;5020587;28;20167;-84
2021/09/25 00:32:18;;;;;;;6.03;3.45;;;15.10;99.70;;;;;;5018999;28;20083;-85
2021/09/25 00:34:43;;;;;;;3.13;2.80;;;15.10;99.90;;;;;;5019840;28;20021;-84
2021/09/25 00:37:09;;;;;;;6.22;3.10;;;15.10;99.60;;;;;;5019620;28;20119;-84
2021/09/25 00:39:34;;;;;;;6.28;3.17;;;15.00;99.50;;;;;;5019931;28;20034;-83
2021/09/25 00:42:00;;;;;;;5.28;3.30;;;15.10;99.70;;;;;;5003815;28;20090;-84
2021/09/25 00:44:26;;;;;;;4.22;2.85;;;15.00;99.50;;;;;;5011811;28;20397;-84
2021/09/25 00:46:51;;;;;;;5.50;2.97;;;15.00;99.60;;;;;;4993853;28;20029;-84
2021/09/25 00:49:20;;;;;;;3.13;2.83;;;15.00;99.70;;;;;;5000409;28;20032;-84
2021/09/25 00:51:47;;;;;;;4.32;3.30;;;15.00;99.60;;;;;;5026272;28;20535;-84
2021/09/25 00:54:12;;;;;;;4.65;3.28;;;15.00;99.60;;;;;;5005931;28;20083;-84
2021/09/25 00:56:38;;;;;;;5.32;3.70;;;14.90;99.80;;;;;;5004846;28;20071;-84
2021/09/25 00:59:04;;;;;;;5.43;4.00;;;14.80;99.80;;;;;;5016692;28;20037;-84
2021/09/25 01:01:29;;;;;;;5.18;3.25;;;14.90;99.80;;;;;;5021205;28;20021;-84
2021/09/25 01:03:55;;;;;;;4.47;3.65;;;14.80;99.90;;;;;;5008685;28;20033;-84
2021/09/25 01:06:20;;;;;;;6.05;2.95;;;14.80;99.70;;;;;;5026128;28;20033;-84
2021/09/25 01:08:46;;;;;;;4.88;3.35;;;14.80;99.70;;;;;;5001528;28;20033;-83
2021/09/25 01:11:11;;;;;;;11.43;5.30;;;14.80;99.60;;;;;;5026664;28;20037;-84
2021/09/25 01:13:37;;;;;;;8.75;3.92;;;14.70;99.70;;;;;;5043996;28;20059;-84
2021/09/25 01:16:03;;;;;;;5.63;4.07;;;14.70;99.90;;;;;;5014090;28;20516;-84
2021/09/25 01:18:28;;;;;;;6.68;4.50;;;14.60;99.70;;;;;;5027773;28;20043;-84
2021/09/25 01:20:54;;;;;;;4.63;3.05;;;14.60;99.60;;;;;;5023178;28;20038;-84
2021/09/25 01:23:19;;;;;;;4.25;3.30;;;14.60;99.70;;;;;;5004713;28;20058;-84
2021/09/25 01:25:45;;;;;;;8.02;4.22;;;14.50;99.90;;;;;;5003757;28;20391;-84
2021/09/25 01:28:10;;;;;;;5.18;3.65;;;14.50;99.90;;;;;;5005851;28;20044;-84
2021/09/25 01:30:36;;;;;;;4.60;3.10;;;14.50;99.80;;;;;;5020616;28;20029;-85
2021/09/25 01:33:02;;;;;;;8.05;3.60;;;14.50;99.90;;;;;;5019655;28;20433;-84
2021/09/25 01:35:27;;;;;;;5.70;3.70;;;14.50;99.90;;;;;;5019827;28;20106;-83
2021/09/25 01:37:53;;;;;;;4.10;3.28;;;14.60;99.90;;;;;;5015601;28;20475;-84
2021/09/25 01:40:19;;;;;;;4.18;3.50;;;14.60;99.90;;;;;;5033337;28;20107;-83
2021/09/25 01:42:45;;;;;;;5.95;3.65;;;14.50;99.90;;;;;;4998727;28;20048;-84
2021/09/25 01:45:11;;;;;;;5.13;3.60;;;14.40;99.90;;;;;;5021595;28;20458;-83
2021/09/25 01:47:39;;;;;;;5.50;3.63;;;14.50;99.80;;;;;;5003330;28;20329;-83
2021/09/25 01:50:06;;;;;;;9.98;5.40;;;14.50;99.90;;;;;;5041224;28;20489;-83
2021/09/25 01:52:31;;;;;;;6.18;3.92;;;14.40;99.90;;;;;;5006788;28;20092;-84
2021/09/25 01:54:57;;;;;;;4.80;3.45;;;14.30;99.90;;;;;;5026519;28;20123;-83
2021/09/25 01:57:22;;;;;;;9.18;4.90;;;14.30;99.90;;;;;;5005649;28;20032;-84
2021/09/25 01:59:48;;;;;;;6.03;3.80;;;14.30;99.90;;;;;;5025293;28;20028;-83
2021/09/25 02:02:14;;;;;;;5.82;3.63;;;14.40;99.90;;;;;;5037560;28;20453;-83
2021/09/25 02:04:46;;;;;;;7.32;4.47;;;14.30;99.90;;;;;;5025049;28;20135;-83
2021/09/25 02:07:15;;;;;;;6.55;4.07;;;14.30;99.90;;;;;;5026881;28;20041;-84
2021/09/25 02:09:41;;;;;;;7.88;4.22;;;14.30;99.90;;;;;;5014035;28;20454;-83
2021/09/25 02:12:07;;;;;;;7.50;4.68;;;14.20;99.90;;;;;;5018267;28;20609;-83
2021/09/25 02:14:32;;;;;;;7.13;4.20;;;14.20;99.90;;;;;;5025859;28;20040;-84
2021/09/25 02:16:58;;;;;;;7.80;4.07;;;14.30;99.90;;;;;;5013025;28;20429;-83
2021/09/25 02:19:23;;;;;;;8.27;4.75;;;14.20;99.90;;;;;;5021263;28;20040;-83
2021/09/25 02:21:49;;;;;;;8.00;3.95;;;14.20;99.90;;;;;;5004372;28;20033;-83
2021/09/25 02:24:15;;;;;;;6.70;4.35;;;14.10;99.90;;;;;;5033128;28;20120;-84
2021/09/25 02:26:41;;;;;;;7.97;4.93;;;14.30;99.90;;;;;;5024022;28;20028;-83
2021/09/25 02:29:06;;;;;;;12.10;5.32;;;14.30;99.90;;;;;;5038316;28;20037;-83
2021/09/25 02:31:32;;;;;;;4.68;3.50;;;14.30;99.90;;;;;;5004031;28;20419;-83
2021/09/25 02:33:57;;;;;;;8.25;4.10;;;14.30;99.90;;;;;;5012726;28;20032;-84
2021/09/25 02:36:23;;;;;;;7.72;5.05;;;14.40;99.90;;;;;;5018223;28;20092;-83
2021/09/25 02:38:49;;;;;;;6.63;3.75;;;14.40;99.90;;;;;;5020734;28;20039;-83
2021/09/25 02:41:15;;;;;;;6.75;4.55;;;14.40;99.90;;;;;;5037155;28;20032;-86
2021/09/25 02:43:40;;;;;;;7.95;3.92;;;14.40;99.90;;;;;;5026541;28;20747;-86
2021/09/25 02:46:06;;;;;;;5.40;3.45;;;14.50;99.90;;;;;;5008545;28;20487;-85
2021/09/25 02:48:31;;;;;;;8.15;4.97;;;14.50;99.90;;;;;;5028723;28;20546;-85
2021/09/25 02:50:57;;;;;;;6.70;4.10;;;14.50;99.90;;;;;;5022034;28;20590;-86
2021/09/25 02:53:22;;;;;;;7.45;4.55;;;14.50;99.90;;;;;;5001728;28;20025;-86
2021/09/25 02:55:48;;;;;;;6.35;4.18;;;14.50;99.90;;;;;;5045645;28;20047;-86
2021/09/25 02:58:14;;;;;;;7.30;4.38;;;14.50;99.90;;;;;;5045267;28;20029;-86
2021/09/25 03:00:40;;;;;;;7.90;4.57;;;14.50;99.90;;;;;;5030332;28;20037;-86
2021/09/25 03:03:05;;;;;;;8.23;4.70;;;14.60;99.90;;;;;;5030363;28;20068;-86
2021/09/25 03:05:31;;;;;;;8.30;4.60;;;14.60;99.90;;;;;;5023191;28;20056;-86
2021/09/25 03:07:57;;;;;;;8.52;4.80;;;14.60;99.90;;;;;;5006466;28;20048;-86
2021/09/25 03:10:23;;;;;;;8.45;4.95;;;14.60;99.90;;;;;;5032582;28;20057;-85
2021/09/25 03:12:49;;;;;;;6.75;4.78;;;14.60;99.90;;;;;;4997312;28;20037;-86
2021/09/25 03:15:14;;;;;;;6.60;4.57;;;14.70;99.90;;;;;;5027836;28;20455;-87
2021/09/25 03:17:40;;;;;;;8.95;5.32;;;14.60;99.90;;;;;;5028213;28;20542;-86
2021/09/25 03:20:06;;;;;;;11.60;5.90;;;14.70;99.90;;;;;;5018031;28;20026;-86
2021/09/25 03:22:31;;;;;;;8.35;5.45;;;14.70;99.90;;;;;;5020197;28;20052;-86
2021/09/25 03:24:57;;;;;;;9.23;4.07;;;14.70;99.90;;;;;;5019395;28;20381;-85
2021/09/25 03:27:24;;;;;;;6.95;4.70;;;14.60;99.90;;;;;;5016679;28;20083;-87
2021/09/25 03:29:50;;;;;;;6.25;4.50;;;14.70;99.90;;;;;;5021949;28;20044;-86
2021/09/25 03:32:16;;;;;;;8.23;4.10;;;14.70;99.90;;;;;;5017810;28;20177;-86
2021/09/25 03:34:42;;;;;;;8.75;4.15;;;14.70;99.90;;;;;;5013973;28;20107;-85
2021/09/25 03:37:07;;;;;;;6.45;4.03;;;14.70;99.90;;;;;;5010646;28;20040;-86
2021/09/25 03:39:33;;;;;;;6.70;3.70;;;14.60;99.90;;;;;;5026924;28;20087;-85
2021/09/25 03:41:58;;;;;;;6.15;4.45;;;14.80;99.90;;;;;;5017818;28;20021;-86
2021/09/25 03:44:24;;;;;;;6.05;3.83;;;14.80;99.90;;;;;;5036323;28;20508;-86
2021/09/25 03:46:49;;;;;;;7.80;4.45;;;14.80;99.90;;;;;;5002643;28;20038;-86
2021/09/25 03:49:15;;;;;;;8.98;4.40;;;14.80;99.90;;;;;;5024591;28;20119;-86
2021/09/25 03:51:40;;;;;;;5.85;3.70;;;14.70;99.90;;;;;;5040699;28;20481;-86
2021/09/25 03:54:06;;;;;;;9.30;4.85;;;14.80;99.80;;;;;;5006575;28;20132;-86
2021/09/25 03:56:31;;;;;;;8.02;5.10;;;14.80;99.90;;;;;;5005617;28;20261;-86
2021/09/25 03:58:57;;;;;;;6.60;3.63;;;14.80;99.90;;;;;;5033145;28;20033;-86
2021/09/25 04:01:22;;;;;;;7.35;4.63;;;14.80;99.90;;;;;;5021111;28;20025;-86
2021/09/25 04:03:48;;;;;;;8.05;5.07;;;14.70;99.90;;;;;;5022074;28;20408;-86
2021/09/25 04:06:13;;;;;;;8.77;5.00;;;14.70;99.90;;;;;;5040020;28;20404;-86
2021/09/25 04:08:39;;;;;;;9.68;5.35;;;14.80;99.90;;;;;;5010360;28;20029;-86
2021/09/25 04:11:05;;;;;;;10.45;4.88;;;14.80;99.90;;;;;;5008637;28;20029;-87
2021/09/25 04:13:30;;;;;;;9.15;6.45;;;14.80;99.90;;;;;;5029688;28;20024;-86
2021/09/25 04:15:56;;;;;;;10.43;5.97;;;14.80;99.90;;;;;;5041876;28;20037;-86
2021/09/25 04:18:21;;;;;;;10.13;5.78;;;14.80;99.90;;;;;;5040408;28;20032;-87
2021/09/25 04:20:47;;;;;;;8.07;4.20;;;14.80;99.90;;;;;;5043007;28;20082;-86
2021/09/25 04:23:13;;;;;;;6.60;4.78;;;14.80;99.90;;;;;;5040932;28;20036;-86
2021/09/25 04:25:38;;;;;;;8.88;4.75;;;14.80;99.90;;;;;;5025395;28;20047;-86
2021/09/25 04:28:05;;;;;;;7.10;4.22;;;14.80;99.80;;;;;;5022000;28;20041;-86
2021/09/25 04:30:34;;;;;;;7.00;4.20;;;14.80;99.80;;;;;;5016240;28;20500;-85
2021/09/25 04:33:00;;;;;;;10.27;4.78;;;14.80;99.70;;;;;;5045333;28;20021;-86
2021/09/25 04:35:25;;;;;;;14.18;6.40;;;14.80;99.80;;;;;;5025785;28;20033;-87
2021/09/25 04:37:51;;;;;;;7.25;4.15;;;14.90;99.90;;;;;;5024052;28;20033;-86
2021/09/25 04:40:17;;;;;;;9.20;5.55;;;14.90;99.90;;;;;;5021072;28;20043;-87
2021/09/25 04:42:42;;;;;;;9.95;6.35;;;14.70;99.90;;;;;;5017194;28;20540;-86
2021/09/25 04:45:11;;;;;;;8.63;4.15;;;14.80;99.90;;;;;;5031235;28;20601;-86
2021/09/25 04:47:38;;;;;;;7.47;4.15;;;14.80;99.80;;;;;;5009452;28;20393;-86
2021/09/25 04:50:04;;;;;;;9.38;4.60;;;14.80;99.60;;;;;;5006136;28;20500;-86
2021/09/25 04:52:29;;;;;;;10.07;4.72;;;14.80;99.70;;;;;;5024969;28;20025;-86
2021/09/25 04:54:55;;;;;;;9.68;5.50;;;14.90;99.80;;;;;;4995377;28;20033;-86
2021/09/25 04:57:20;;;;;;;8.50;5.30;;;14.90;99.60;;;;;;5003522;28;20036;-86
2021/09/25 04:59:46;;;;;;;9.77;5.70;;;14.90;99.60;;;;;;5040803;28;20574;-86
2021/09/25 05:02:12;;;;;;;7.82;4.57;;;14.90;99.90;;;;;;5030553;28;20481;-86
2021/09/25 05:04:37;;;;;;;8.48;4.53;;;14.90;99.70;;;;;;5000066;28;20463;-85
2021/09/25 05:07:03;;;;;;;8.80;5.63;;;14.90;99.70;;;;;;5040216;28;20041;-85
2021/09/25 05:09:28;;;;;;;11.80;6.47;;;14.90;99.70;;;;;;5027600;28;20024;-86
2021/09/25 05:11:54;;;;;;;10.75;5.60;;;15.00;99.90;;;;;;5000546;28;20032;-87
2021/09/25 05:14:19;;;;;;;9.35;5.07;;;15.00;99.70;;;;;;5024748;28;20028;-87
2021/09/25 05:16:45;;;;;;;9.25;5.88;;;15.00;99.60;;;;;;5025057;28;20431;-87
2021/09/25 05:19:11;;;;;;;10.32;5.75;;;15.00;99.60;;;;;;5019430;28;20044;-86
2021/09/25 05:21:36;;;;;;;9.27;5.13;;;15.00;99.40;;;;;;5028553;28;20071;-88
2021/09/25 05:24:02;;;;;;;9.07;6.53;;;15.00;99.60;;;;;;5023742;28;20039;-87
2021/09/25 05:26:28;;;;;;;9.20;6.28;;;15.00;99.60;;;;;;5027567;28;20032;-87
2021/09/25 05:28:53;;;;;;;8.70;5.10;;;15.00;99.70;;;;;;4999556;28;20088;-87
2021/09/25 05:31:19;;;;;;;10.65;5.70;;;15.00;99.40;;;;;;5040867;28;20035;-87
2021/09/25 05:33:44;;;;;;;8.57;5.13;;;15.10;99.40;;;;;;5025899;28;20488;-87
2021/09/25 05:36:10;;;;;;;8.25;5.00;;;15.10;99.40;;;;;;5036313;28;20078;-86
2021/09/25 05:38:35;;;;;;;9.70;5.95;;;15.10;99.50;;;;;;5027324;28;20439;-86
2021/09/25 05:41:02;;;;;;;8.52;4.97;;;15.10;99.50;;;;;;5017947;28;20071;-86
2021/09/25 05:43:28;;;;;;;8.32;5.32;;;15.10;99.70;;;;;;5012090;28;20028;-86
2021/09/25 05:45:53;;;;;;;14.25;6.93;;;15.00;99.30;;;;;;5014050;28;20025;-85
2021/09/25 05:48:19;;;;;;;8.48;4.60;;;15.10;99.70;;;;;;5001702;28;20024;-86
2021/09/25 05:50:45;;;;;;;10.63;6.53;;;15.10;99.30;;;;;;5013315;28;20104;-86
2021/09/25 05:53:11;;;;;;;9.88;6.22;;;15.10;99.50;;;;;;5038170;28;20025;-85
2021/09/25 05:55:37;;;;;;;11.05;6.40;;;15.10;99.90;;;;;;5006726;28;20029;-86
2021/09/25 05:58:03;;;;;;;10.35;6.68;;;15.10;99.40;;;;;;5002781;28;20481;-86
2021/09/25 06:00:29;;;;;;;14.23;7.80;;;15.10;99.60;;;;;;5000292;28;20064;-85
2021/09/25 06:02:57;;;;;;;10.38;6.07;;;15.20;99.80;;;;;;5002836;28;20032;-85
2021/09/25 06:05:23;;;;;;;12.15;6.55;;;15.10;99.70;;;;;;5030357;28;20575;-85
2021/09/25 06:07:48;;;;;;;10.23;5.90;;;15.10;99.70;;;;;;4992693;28;20049;-85
2021/09/25 06:10:14;;;;;;;11.23;6.80;;;15.20;99.60;;;;;;5004681;28;20032;-84
2021/09/25 06:12:40;;;;;;;10.90;5.70;;;15.20;99.50;;;;;;5000480;28;20485;-85
2021/09/25 06:15:07;;;;;;;14.48;6.10;;;15.20;99.40;;;;;;5014246;28;20444;-85
2021/09/25 06:17:33;;;;;;;11.85;6.15;;;15.20;99.60;;;;;;5005580;28;20127;-85
2021/09/25 06:19:58;;;;;;;9.23;6.95;;;15.30;99.70;;;;;;5027616;28;20715;-85
2021/09/25 06:22:26;;;;;;;10.73;5.35;;;15.20;99.60;;;;;;5013745;28;20729;-84
2021/09/25 06:24:52;;;;;;;12.55;6.63;;;15.30;99.40;;;;;;5020465;28;20516;-85
2021/09/25 06:27:17;;;;;;;14.73;6.63;;;15.30;99.70;;;;;;5030931;28;20513;-84
2021/09/25 06:29:43;;;;;;;11.75;5.63;;;15.30;99.60;;;;;;5004152;28;20051;-84
2021/09/25 06:32:10;;;;;;;9.80;6.22;;;15.30;99.50;;;;;;5023556;28;20032;-85
2021/09/25 06:34:36;;;;;;;9.07;6.82;;;15.40;99.60;;;;;;5027712;28;20086;-85
2021/09/25 06:37:03;;;;;;;10.18;5.35;;;15.40;99.50;;;;;;5031738;28;20486;-84
2021/09/25 06:39:28;;;;;;;10.93;5.82;;;15.40;99.40;;;;;;5012644;28;20029;-84
2021/09/25 06:41:54;;;;;;;11.50;6.65;;;15.50;99.40;;;;;;5009921;28;20071;-85
2021/09/25 06:44:19;;;;;;;12.65;6.97;;;15.50;99.50;;;;;;5028360;28;20041;-84
2021/09/25 06:46:45;;;;;;;15.05;6.13;;;15.60;99.70;;;;;;5009746;28;20039;-84
2021/09/25 06:49:11;;;;;;;8.73;5.50;;;15.50;99.30;;;;;;5027472;28;20036;-84
2021/09/25 06:51:36;;;;;;;12.25;6.15;;;15.50;99.40;;;;;;5005649;28;20421;-84
2021/09/25 06:54:02;;;;;;;8.82;6.32;;;15.60;99.40;;;;;;5029139;28;20560;-84
2021/09/25 06:56:28;;;;;;;14.07;7.35;;;15.60;99.30;;;;;;5025082;28;20091;-84
2021/09/25 06:58:53;;;;;;;11.02;6.88;;;15.60;99.50;;;;;;5003956;28;20037;-85
2021/09/25 07:01:19;;;;;;;10.43;6.85;;;15.70;99.30;;;;;;5033502;28;20025;-85
2021/09/25 07:03:44;;;;;;;14.00;7.45;;;15.80;99.70;;;;;;5006229;28;20124;-84
2021/09/25 07:06:10;;;;;;;12.88;7.20;;;15.70;99.50;;;;;;5031656;28;20085;-85
2021/09/25 07:08:36;;;;;;;12.35;6.95;;;15.70;99.40;;;;;;5041127;28;20047;-85
2021/09/25 07:11:02;;;;;;;11.73;6.85;;;15.80;99.70;;;;;;5046622;28;20128;-86
2021/09/25 07:13:28;;;;;;;15.38;7.55;;;15.80;99.40;;;;;;5024232;28;20135;-85
2021/09/25 07:15:53;;;;;;;15.05;7.20;;;15.90;99.70;;;;;;5006157;28;20078;-85
2021/09/25 07:18:20;;;;;;;12.73;6.05;;;15.90;99.40;;;;;;5025693;28;20045;-86
2021/09/25 07:20:45;;;;;;;12.13;6.15;;;15.90;99.20;;;;;;5009941;28;20561;-85
2021/09/25 07:23:11;;;;;;;13.52;7.57;;;15.90;99.30;;;;;;5029678;28;20030;-85
2021/09/25 07:25:39;;;;;;;10.88;7.00;;;16.00;99.40;;;;;;5002614;28;20212;-85
2021/09/25 07:28:04;;;;;;;14.02;7.53;;;16.00;99.40;;;;;;5021921;28;20443;-85
2021/09/25 07:30:31;;;;;;;9.85;6.15;;;16.00;99.40;;;;;;5011209;28;20508;-85
2021/09/25 07:32:58;;;;;;;10.02;6.75;;;16.10;99.20;;;;;;5002213;28;20037;-85
2021/09/25 07:35:23;;;;;;;11.07;6.55;;;16.10;99.10;;;;;;5020565;28;20052;-85
2021/09/25 07:37:49;;;;;;;9.68;6.78;;;16.10;99.10;;;;;;5023910;28;20063;-85
2021/09/25 07:40:15;;;;;;;10.52;7.20;;;16.20;99.00;;;;;;5034630;28;20033;-85
2021/09/25 07:42:40;;;;;;;12.63;6.55;;;16.20;98.90;;;;;;5029966;28;20443;-86
2021/09/25 07:45:06;;;;;;;10.98;6.97;;;16.40;99.50;;;;;;5021026;28;20040;-85
2021/09/25 07:47:32;;;;;;;9.50;5.47;;;16.50;99.20;;;;;;5013863;28;20056;-85
2021/09/25 07:49:58;;;;;;;8.02;5.85;;;16.50;98.80;;;;;;5036365;28;20105;-85
2021/09/25 07:52:23;;;;;;;8.25;4.85;;;16.50;98.80;;;;;;5024632;28;20028;-86
2021/09/25 07:54:49;;;;;;;8.35;5.18;;;16.50;98.70;;;;;;5021207;28;20127;-87
2021/09/25 07:57:14;;;;;;;10.85;7.05;;;16.60;98.40;;;;;;5029815;28;20025;-87
2021/09/25 07:59:40;;;;;;;8.48;6.47;;;16.60;98.80;;;;;;5008893;28;20053;-87
2021/09/25 08:02:05;;;;;;;11.73;7.38;;;16.60;98.50;;;;;;5037300;28;20059;-87
2021/09/25 08:04:31;;;;;;;7.70;5.35;;;16.70;98.40;;;;;;5023959;28;20111;-86
2021/09/25 08:06:57;;;;;;;8.00;5.35;;;16.80;98.30;;;;;;5041483;28;20037;-87
2021/09/25 08:09:23;;;;;;;8.95;5.85;;;16.90;98.50;;;;;;5040255;28;20021;-86
2021/09/25 08:11:49;;;;;;;13.02;6.88;;;17.00;98.70;;;;;;5027583;28;20037;-86
2021/09/25 08:14:15;;;;;;;9.68;5.93;;;17.00;99.00;;;;;;5009800;28;20037;-86
2021/09/25 08:16:41;;;;;;;8.05;5.60;;;17.30;99.20;;;;;;5003412;28;20039;-87
2021/09/25 08:19:06;;;;;;;14.10;6.20;;;17.30;98.50;;;;;;5002106;28;20051;-86
2021/09/25 08:21:35;;;;;;;10.00;6.82;;;17.40;98.10;;;;;;5026636;28;20024;-86
2021/09/25 08:24:01;;;;;;;11.80;5.53;;;17.40;98.60;;;;;;5037635;28;20708;-87
2021/09/25 08:26:27;;;;;;;12.57;5.93;;;17.40;97.80;;;;;;5026269;28;20389;-87
2021/09/25 08:28:53;;;;;;;8.30;5.07;;;17.30;98.00;;;;;;5003055;28;20028;-86
2021/09/25 08:31:18;;;;;;;10.02;5.55;;;17.40;97.70;;;;;;5039032;28;20024;-87
2021/09/25 08:33:44;;;;;;;8.10;5.47;;;17.40;97.90;;;;;;5026337;28;20055;-87
2021/09/25 08:36:09;;;;;;;9.00;5.50;;;17.60;98.00;;;;;;5039437;28;20027;-87
2021/09/25 08:38:35;;;;;;;6.78;5.20;;;17.80;97.60;;;;;;5025241;28;20029;-87
2021/09/25 08:41:01;;;;;;;7.63;5.53;;;17.60;97.20;;;;;;5034690;28;20036;-87
2021/09/25 08:43:27;;;;;;;9.05;5.32;;;17.60;97.40;;;;;;5004343;28;20046;-86
2021/09/25 08:45:59;;;;;;;8.05;4.72;;;17.50;97.30;;;;;;5022357;28;20119;-87
2021/09/25 08:48:25;;;;;;;8.77;4.47;;;17.70;97.40;;;;;;5016136;28;20428;-87
2021/09/25 08:50:51;;;;;;;10.68;4.82;;;17.60;97.00;;;;;;5022748;28;20043;-86
2021/09/25 08:53:16;;;;;;;6.82;4.45;;;17.70;97.10;;;;;;4997150;28;20603;-86
2021/09/25 08:55:42;;;;;;;6.75;4.68;;;17.70;96.90;;;;;;5028564;28;20500;-86
2021/09/25 08:58:10;;;;;;;5.15;4.53;;;17.90;96.80;;;;;;5006049;28;20079;-86
2021/09/25 09:00:39;;;;;;;7.65;4.80;;;18.00;96.70;;;;;;5042007;28;20032;-86
2021/09/25 09:03:51;;;;;;;8.15;5.18;;;17.90;96.60;;;;;;5054962;28;20037;-86
2021/09/25 09:06:21;;;;;;;7.00;4.70;;;17.90;96.90;;;;;;4999947;28;20515;-86
2021/09/25 09:08:51;;;;;;;6.15;4.85;;;18.00;96.60;;;;;;5020401;28;20496;-86
2021/09/25 09:11:18;;;;;;;5.55;3.55;;;18.10;97.00;;;;;;5006169;28;20021;-86
2021/09/25 09:13:46;;;;;;;5.95;4.15;;;18.30;96.00;;;;;;5030241;28;20032;-86
2021/09/25 09:16:12;;;;;;;7.53;4.93;;;18.10;96.30;;;;;;5043917;28;20020;-86
2021/09/25 09:18:40;;;;;;;7.22;4.00;;;18.20;96.40;;;;;;4318345;28;10000476;-87
2021/09/25 09:21:09;;;;;;;8.10;4.20;;;18.30;95.80;;;;;;5012629;28;20467;-86
2021/09/25 09:23:37;;;;;;;8.75;4.30;;;18.30;95.80;;;;;;5011081;28;20084;-86
2021/09/25 09:26:04;;;;;;;7.43;4.97;;;18.30;96.30;;;;;;5017620;28;20460;-86
2021/09/25 09:28:30;;;;;;;8.85;5.30;;;18.40;95.80;;;;;;4999845;28;20368;-86
2021/09/25 09:30:57;;;;;;;10.65;6.07;;;18.70;95.70;;;;;;5028778;28;20029;-86
2021/09/25 09:33:27;;;;;;;9.13;4.68;;;18.60;95.80;;;;;;5005001;28;20036;-86
2021/09/25 09:35:53;;;;;;;8.48;5.13;;;18.80;95.80;;;;;;5038568;28;20484;-85
2021/09/25 09:38:22;;;;;;;8.70;5.55;;;19.10;95.40;;;;;;5017830;28;20040;-86
2021/09/25 09:40:52;;;;;;;6.70;4.80;;;19.20;95.50;;;;;;5017794;28;20029;-85
2021/09/25 09:43:18;;;;;;;7.50;4.82;;;19.40;95.20;;;;;;4972101;28;20175;-85
2021/09/25 09:45:43;;;;;;;7.15;4.55;;;19.50;94.80;;;;;;5017934;28;20106;-86
2021/09/25 09:48:09;;;;;;;5.32;4.28;;;19.80;96.20;;;;;;5003311;28;20107;-86
2021/09/25 09:50:38;;;;;;;5.88;4.60;;;19.90;95.00;;;;;;5025173;28;20061;-86
2021/09/25 09:53:14;;;;;;;12.43;5.47;;;19.90;94.80;;;;;;5030032;28;20549;-86
2021/09/25 09:55:39;;;;;;;7.95;4.45;;;20.10;94.50;;;;;;4996713;28;22734;-87
2021/09/25 09:58:05;;;;;;;8.80;4.95;;;20.00;94.80;;;;;;5008959;28;20115;-86
2021/09/25 10:00:35;;;;;;;7.05;4.57;;;20.00;94.80;;;;;;5014274;28;20045;-86
2021/09/25 10:03:00;;;;;;;6.18;4.22;;;20.30;94.50;;;;;;5041633;28;20037;-86
2021/09/25 10:05:26;;;;;;;8.30;4.65;;;20.40;94.60;;;;;;5021894;28;20101;-87
2021/09/25 10:07:52;;;;;;;6.25;4.05;;;20.70;95.60;;;;;;5006077;28;20041;-87
2021/09/25 10:10:18;;;;;;;6.32;4.60;;;20.70;94.00;;;;;;5024356;28;20025;-86
2021/09/25 10:12:43;;;;;;;11.13;4.22;;;20.70;94.10;;;;;;5009442;28;20140;-87
2021/09/25 10:15:09;;;;;;;5.30;4.57;;;21.00;96.20;;;;;;5040859;28;20048;-87
2021/09/25 10:17:37;;;;;;;4.30;3.90;;;21.30;96.90;;;;;;5003503;28;20040;-87
2021/09/25 10:20:03;;;;;;;7.78;4.50;;;21.30;93.40;;;;;;5039942;28;20033;-87
2021/09/25 10:22:30;;;;;;;6.22;3.92;;;21.40;93.90;;;;;;5020312;28;20554;-87
2021/09/25 10:25:00;;;;;;;5.38;4.13;;;21.00;93.20;;;;;;5019255;28;20036;-86
2021/09/25 10:27:36;;;;;;;8.68;4.43;;;21.40;94.30;;;;;;5043582;28;20116;-86
2021/09/25 10:30:04;;;;;;;8.98;4.75;;;21.20;93.60;;;;;;4998515;28;20060;-86
2021/09/25 10:32:31;;;;;;;6.13;4.32;;;22.00;95.40;;;;;;5028923;28;20059;-86
2021/09/25 10:35:16;;;;;;;8.15;4.28;;;22.00;93.20;;;;;;5002307;28;20181;-86
2021/09/25 10:37:56;;;;;;;9.93;4.53;;;22.60;95.30;;;;;;5024005;28;20047;-87
2021/09/25 10:40:26;;;;;;;9.98;5.63;;;22.30;94.80;;;;;;5044966;28;20063;-86
2021/09/25 10:42:56;;;;;;;6.25;4.05;;;22.80;95.80;;;;;;4650605;28;10000063;-87
2021/09/25 10:45:36;;;;;;;6.82;4.30;;;21.70;92.30;;;;;;5000370;28;20445;-87
2021/09/25 10:48:19;;;;;;;4.65;4.00;;;22.00;93.30;;;;;;5035241;28;20037;-87
2021/09/25 10:50:56;;;;;;;6.90;4.22;;;22.40;92.50;;;;;;5038540;28;20036;-87
2021/09/25 10:53:29;;;;;;;5.93;4.10;;;22.80;94.50;;;;;;5008505;28;20044;-87
2021/09/25 10:55:57;;;;;;;6.43;4.18;;;23.30;94.50;;;;;;5019670;28;20036;-88
2021/09/25 10:58:44;;;;;;;8.75;4.40;;;23.40;94.10;;;;;;5001390;28;20041;-87
2021/09/25 11:01:14;;;;;;;6.38;4.80;;;23.50;92.80;;;;;;4972551;28;20064;-88
2021/09/25 11:03:48;;;;;;;8.35;6.03;;;23.10;91.10;;;;;;4976602;28;20128;-89
2021/09/25 11:06:40;;;;;;;7.47;5.55;;;23.00;94.90;;;;;;4667040;28;9999732;-85
2021/09/25 11:09:18;;;;;;;9.95;5.72;;;23.90;93.90;;;;;;5026891;28;20052;-86
2021/09/25 11:15:43;;;;;;;7.53;4.65;;;24.40;92.20;;;;;;4952118;28;20073;-87
2021/09/25 11:26:13;;;;;;;;;;;;;;;;;;;;;
2021/09/25 13:21:03;;;;;;;7.22;4.70;;;27.80;83.80;;;;;;5044400;28;20131;-87
2021/09/25 13:23:30;;;;;;;7.40;5.85;;;28.00;82.60;;;;;;5037191;28;20104;-87
2021/09/25 13:25:56;;;;;;;9.57;4.88;;;28.10;81.10;;;;;;5034486;28;20186;-84
2021/09/25 13:28:34;;;;;;;6.88;5.88;;;28.20;80.60;;;;;;5028676;28;20112;-83
2021/09/25 13:31:00;;;;;;;8.02;5.22;;;28.30;79.80;;;;;;5011422;28;20115;-84
2021/09/25 13:33:25;;;;;;;5.75;4.15;;;28.40;80.20;;;;;;5020052;28;20463;-84
2021/09/25 13:35:51;;;;;;;7.15;5.30;;;28.30;78.50;;;;;;5007288;28;20027;-83
2021/09/25 13:38:17;;;;;;;9.48;5.30;;;28.20;79.10;;;;;;5048505;28;20512;-83
2021/09/25 13:40:43;;;;;;;7.10;4.72;;;28.20;79.60;;;;;;5032792;28;20360;-82
2021/09/25 13:43:08;;;;;;;9.88;6.50;;;28.20;78.10;;;;;;5036997;28;20170;-82
2021/09/25 13:45:34;;;;;;;7.20;4.90;;;28.20;79.40;;;;;;5034496;28;20043;-83
2021/09/25 13:47:59;;;;;;;6.80;4.28;;;28.00;79.00;;;;;;5033859;28;20373;-82
2021/09/25 13:50:25;;;;;;;6.32;4.32;;;28.00;79.20;;;;;;5036410;28;20038;-83
2021/09/25 13:52:51;;;;;;;5.80;4.28;;;27.80;78.90;;;;;;5051426;28;20043;-82
2021/09/25 13:55:17;;;;;;;6.63;3.97;;;27.50;79.80;;;;;;5046916;28;20123;-82
2021/09/25 13:57:42;;;;;;;8.25;5.40;;;27.40;81.00;;;;;;5046402;28;20169;-82
2021/09/25 14:00:09;;;;;;;6.13;4.35;;;27.30;80.00;;;;;;5025474;28;20029;-82
2021/09/25 14:02:34;;;;;;;6.03;4.70;;;27.10;80.60;;;;;;5045014;28;20396;-82
2021/09/25 14:05:00;;;;;;;5.35;3.67;;;26.90;81.20;;;;;;5027446;28;20033;-82
2021/09/25 14:07:25;;;;;;;4.95;3.90;;;26.80;81.30;;;;;;5023318;28;20025;-82
2021/09/25 14:09:51;;;;;;;4.50;3.92;;;26.50;81.70;;;;;;5010063;28;20108;-84
2021/09/25 14:12:16;;;;;;;4.97;3.95;;;26.50;82.20;;;;;;5027352;28;20039;-84
2021/09/25 14:14:42;;;;;;;4.45;3.83;;;26.40;82.40;;;;;;5023126;28;20037;-83
2021/09/25 14:17:07;;;;;;;3.67;3.38;;;26.20;82.80;;;;;;5042421;28;20029;-85
2021/09/25 14:19:33;;;;;;;9.38;4.60;;;26.10;85.20;;;;;;5036226;28;20040;-83
2021/09/25 14:21:59;;;;;;;4.15;3.40;;;26.00;82.70;;;;;;5054359;28;20033;-84
2021/09/25 14:24:24;;;;;;;6.75;3.67;;;25.90;82.70;;;;;;5021405;28;20064;-84
2021/09/25 14:26:50;;;;;;;8.07;4.78;;;25.70;82.40;;;;;;5030631;28;20044;-83
2021/09/25 14:29:16;;;;;;;5.35;3.78;;;25.60;83.30;;;;;;5008359;28;20040;-83
2021/09/25 14:31:43;;;;;;;6.28;3.33;;;25.50;83.90;;;;;;5013052;28;20029;-83
2021/09/25 14:34:09;;;;;;;5.10;4.32;;;25.60;85.00;;;;;;5052034;28;20036;-84
2021/09/25 14:36:36;;;;;;;7.30;4.25;;;25.80;86.50;;;;;;5059234;28;20033;-83
2021/09/25 14:39:02;;;;;;;7.43;3.90;;;25.40;83.60;;;;;;5029560;28;20511;-83
2021/09/25 14:41:28;;;;;;;14.35;5.22;;;25.20;83.30;;;;;;5016779;28;20431;-83
2021/09/25 14:43:53;;;;;;;3.88;3.10;;;25.00;83.50;;;;;;5029887;28;20033;-83
2021/09/25 14:46:19;;;;;;;4.22;3.63;;;25.00;84.70;;;;;;5015007;28;20104;-82